sim
Sign-in with your pilot id or email,
or register
Callsign
Passwort

Schedule Details

Flight Number: RYR2175 (2)
Departure: Dortmund Airport (EDLW) at 17:10
Arrival: Thessaloniki International Airport (LGTS) at 19:55
Route: Ryanair Passenger Schedule. Enter filed route here before submitting Pirep.

Weather Information
Getting current METAR information for EDLW 230620Z 14006KT 110V180 CAVOK 15/10 Q1026
Getting current METAR information for LGTS 230620Z VRB02KT CAVOK 28/18 Q1019 NOSIG

Schedule Frequency

Route Map